Terminal Aerodrome Forecast
Issued by NWS

Home | Current Version | Previous Version | Text Only | Print | Product List | Glossary On
Versions: 1 2 3 4 5 6 7 8 9 10 11 12 13 14 15 16
699
FTUS46 KMTR 241126
TAFSJC
TAF
KSJC 241126Z 2412/2512 31004KT P6SM BKN025 OVC030
     FM241800 32009KT P6SM FEW030 SCT050
     FM242100 30013KT P6SM FEW030 FEW060
     FM250300 30008KT P6SM SCT020
     FM250700 30003KT P6SM BKN015
     FM251000 VRB03KT P6SM OVC012=

USA.gov is the U.S. government's official web portal to all federal, state and local government web resources and services.